New Alexander, Ohio
Current Conditions -  °F | °C
As of 6:51 PM on Friday 28 Nov 2014 (Local Time) from KCAK Reporting Station
Light Snow Light Snow  
Wind Chill: 17°   Ceiling: 7000
Heat Index: 27°   Visibility: 7mi
Dew Point: 18°   Wind: 10mph
Humidity: 69%   Direction: 200°SSW
Pressure: 30.19"   Gusts: NA
Location:  40.7264°N, 81.025°W
Report Text: KCAK 282351Z 20009KT 7SM -SN SCT055 BKN070 OVC100 M03/M08 A3019 RMK AO2 SLP240 P0000 60000 T10281078 11022 21033 58010
Loading
Personal Weather Stations






























Interactive Weather Map New forecast layout! Learn more

10-Day Weather Forecast

Advertisements
Track Severe Weather on mobile